sensor_id;sensor_type;location;lat;lon;timestamp;P1;durP1;ratioP1;P2;durP2;ratioP2
67768;SDS011;54569;52.018;5.584;2024-03-23T00:54:02;21.73;;;10.77;;
67768;SDS011;54569;52.018;5.584;2024-03-23T00:56:28;26.85;;;11.82;;
67768;SDS011;54569;52.018;5.584;2024-03-23T00:58:54;20.73;;;10.75;;
67768;SDS011;54569;52.018;5.584;2024-03-23T01:01:20;23.13;;;11.20;;
67768;SDS011;54569;52.018;5.584;2024-03-23T01:03:46;27.63;;;11.85;;
67768;SDS011;54569;52.018;5.584;2024-03-23T01:06:11;26.67;;;10.63;;
67768;SDS011;54569;52.018;5.584;2024-03-23T01:08:37;26.17;;;11.85;;
67768;SDS011;54569;52.018;5.584;2024-03-23T01:11:03;30.65;;;11.68;;
67768;SDS011;54569;52.018;5.584;2024-03-23T01:13:29;25.23;;;11.40;;
67768;SDS011;54569;52.018;5.584;2024-03-23T01:15:55;22.33;;;11.02;;
67768;SDS011;54569;52.018;5.584;2024-03-23T01:18:22;29.02;;;11.75;;
67768;SDS011;54569;52.018;5.584;2024-03-23T01:20:48;24.85;;;12.20;;
67768;SDS011;54569;52.018;5.584;2024-03-23T01:23:14;23.95;;;10.90;;
67768;SDS011;54569;52.018;5.584;2024-03-23T01:25:40;31.13;;;11.23;;
67768;SDS011;54569;52.018;5.584;2024-03-23T01:28:06;25.50;;;11.00;;
67768;SDS011;54569;52.018;5.584;2024-03-23T01:30:33;27.30;;;11.40;;
67768;SDS011;54569;52.018;5.584;2024-03-23T01:32:59;25.90;;;9.77;;
67768;SDS011;54569;52.018;5.584;2024-03-23T01:35:25;25.70;;;10.18;;
67768;SDS011;54569;52.018;5.584;2024-03-23T01:37:52;23.20;;;9.45;;
67768;SDS011;54569;52.018;5.584;2024-03-23T01:40:17;23.42;;;10.75;;
67768;SDS011;54569;52.018;5.584;2024-03-23T01:42:56;26.00;;;10.45;;
67768;SDS011;54569;52.018;5.584;2024-03-23T01:45:23;22.98;;;10.20;;
67768;SDS011;54569;52.018;5.584;2024-03-23T01:47:50;24.38;;;9.95;;
67768;SDS011;54569;52.018;5.584;2024-03-23T01:50:22;25.83;;;10.05;;
67768;SDS011;54569;52.018;5.584;2024-03-23T01:52:48;21.88;;;9.85;;
67768;SDS011;54569;52.018;5.584;2024-03-23T01:55:15;27.75;;;10.90;;
67768;SDS011;54569;52.018;5.584;2024-03-23T01:57:41;22.92;;;10.18;;
67768;SDS011;54569;52.018;5.584;2024-03-23T02:00:07;27.83;;;11.90;;
67768;SDS011;54569;52.018;5.584;2024-03-23T02:02:43;21.85;;;10.25;;
67768;SDS011;54569;52.018;5.584;2024-03-23T02:05:13;27.05;;;10.93;;
67768;SDS011;54569;52.018;5.584;2024-03-23T02:07:39;19.48;;;10.73;;
67768;SDS011;54569;52.018;5.584;2024-03-23T02:10:06;23.85;;;10.25;;
67768;SDS011;54569;52.018;5.584;2024-03-23T02:12:33;23.73;;;10.90;;
67768;SDS011;54569;52.018;5.584;2024-03-23T02:14:59;20.23;;;10.02;;
67768;SDS011;54569;52.018;5.584;2024-03-23T02:17:25;24.05;;;10.75;;
67768;SDS011;54569;52.018;5.584;2024-03-23T02:19:51;24.55;;;11.57;;
67768;SDS011;54569;52.018;5.584;2024-03-23T02:22:17;20.13;;;9.95;;
67768;SDS011;54569;52.018;5.584;2024-03-23T02:24:42;19.73;;;10.20;;
67768;SDS011;54569;52.018;5.584;2024-03-23T02:27:08;23.02;;;9.68;;
67768;SDS011;54569;52.018;5.584;2024-03-23T02:29:34;23.10;;;9.88;;
67768;SDS011;54569;52.018;5.584;2024-03-23T02:32:00;26.05;;;11.15;;
67768;SDS011;54569;52.018;5.584;2024-03-23T02:34:26;21.38;;;10.40;;
67768;SDS011;54569;52.018;5.584;2024-03-23T02:36:52;19.80;;;10.25;;
67768;SDS011;54569;52.018;5.584;2024-03-23T02:39:17;25.33;;;10.77;;
67768;SDS011;54569;52.018;5.584;2024-03-23T02:41:43;23.00;;;11.27;;
67768;SDS011;54569;52.018;5.584;2024-03-23T02:44:09;23.08;;;10.38;;
67768;SDS011;54569;52.018;5.584;2024-03-23T02:46:37;16.95;;;9.00;;
67768;SDS011;54569;52.018;5.584;2024-03-23T02:49:03;20.10;;;9.35;;
67768;SDS011;54569;52.018;5.584;2024-03-23T02:51:29;19.63;;;9.70;;
67768;SDS011;54569;52.018;5.584;2024-03-23T02:53:55;22.52;;;9.38;;
67768;SDS011;54569;52.018;5.584;2024-03-23T02:56:21;19.35;;;9.65;;
67768;SDS011;54569;52.018;5.584;2024-03-23T02:58:47;20.70;;;10.23;;
67768;SDS011;54569;52.018;5.584;2024-03-23T03:01:13;24.88;;;9.95;;
67768;SDS011;54569;52.018;5.584;2024-03-23T03:03:38;17.60;;;9.05;;
67768;SDS011;54569;52.018;5.584;2024-03-23T03:06:04;22.60;;;9.48;;
67768;SDS011;54569;52.018;5.584;2024-03-23T03:08:30;15.70;;;9.18;;
67768;SDS011;54569;52.018;5.584;2024-03-23T03:10:55;21.30;;;9.55;;
67768;SDS011;54569;52.018;5.584;2024-03-23T03:13:21;21.40;;;8.80;;
67768;SDS011;54569;52.018;5.584;2024-03-23T03:15:47;18.13;;;8.60;;
67768;SDS011;54569;52.018;5.584;2024-03-23T03:18:12;18.50;;;8.13;;
67768;SDS011;54569;52.018;5.584;2024-03-23T03:20:39;21.75;;;8.75;;
67768;SDS011;54569;52.018;5.584;2024-03-23T03:23:05;20.23;;;8.13;;
67768;SDS011;54569;52.018;5.584;2024-03-23T03:25:34;21.13;;;8.07;;
67768;SDS011;54569;52.018;5.584;2024-03-23T03:28:00;21.77;;;8.98;;
67768;SDS011;54569;52.018;5.584;2024-03-23T03:30:27;17.83;;;8.10;;
67768;SDS011;54569;52.018;5.584;2024-03-23T03:32:53;14.60;;;6.95;;
67768;SDS011;54569;52.018;5.584;2024-03-23T03:35:19;18.67;;;8.20;;
67768;SDS011;54569;52.018;5.584;2024-03-23T03:37:45;15.40;;;7.47;;
67768;SDS011;54569;52.018;5.584;2024-03-23T03:40:11;19.35;;;7.88;;
67768;SDS011;54569;52.018;5.584;2024-03-23T03:42:37;17.58;;;7.88;;
67768;SDS011;54569;52.018;5.584;2024-03-23T03:45:03;19.58;;;7.65;;
67768;SDS011;54569;52.018;5.584;2024-03-23T03:47:29;17.25;;;7.10;;
67768;SDS011;54569;52.018;5.584;2024-03-23T03:49:55;15.85;;;7.05;;
67768;SDS011;54569;52.018;5.584;2024-03-23T03:52:21;13.25;;;5.63;;
67768;SDS011;54569;52.018;5.584;2024-03-23T03:54:47;18.42;;;6.40;;
67768;SDS011;54569;52.018;5.584;2024-03-23T03:57:13;15.70;;;5.35;;
67768;SDS011;54569;52.018;5.584;2024-03-23T03:59:38;14.45;;;6.20;;
67768;SDS011;54569;52.018;5.584;2024-03-23T04:02:04;14.45;;;5.10;;
67768;SDS011;54569;52.018;5.584;2024-03-23T04:04:30;14.25;;;5.50;;
67768;SDS011;54569;52.018;5.584;2024-03-23T04:07:02;15.48;;;5.07;;
67768;SDS011;54569;52.018;5.584;2024-03-23T04:09:30;12.30;;;5.07;;
67768;SDS011;54569;52.018;5.584;2024-03-23T04:11:56;17.38;;;5.38;;
67768;SDS011;54569;52.018;5.584;2024-03-23T04:14:21;12.48;;;4.78;;
67768;SDS011;54569;52.018;5.584;2024-03-23T04:16:47;12.50;;;4.75;;
67768;SDS011;54569;52.018;5.584;2024-03-23T04:19:13;15.85;;;4.20;;
67768;SDS011;54569;52.018;5.584;2024-03-23T04:21:39;12.32;;;4.03;;
67768;SDS011;54569;52.018;5.584;2024-03-23T04:24:06;13.77;;;3.80;;
67768;SDS011;54569;52.018;5.584;2024-03-23T04:26:41;15.52;;;4.28;;
67768;SDS011;54569;52.018;5.584;2024-03-23T04:29:07;12.60;;;4.13;;
67768;SDS011;54569;52.018;5.584;2024-03-23T04:31:33;7.20;;;3.13;;
67768;SDS011;54569;52.018;5.584;2024-03-23T04:34:00;13.95;;;3.50;;
67768;SDS011;54569;52.018;5.584;2024-03-23T04:36:26;11.45;;;3.95;;
67768;SDS011;54569;52.018;5.584;2024-03-23T04:38:52;9.55;;;3.80;;
67768;SDS011;54569;52.018;5.584;2024-03-23T04:41:18;10.35;;;3.83;;
67768;SDS011;54569;52.018;5.584;2024-03-23T04:43:43;12.75;;;3.28;;
67768;SDS011;54569;52.018;5.584;2024-03-23T04:46:09;16.83;;;4.72;;
67768;SDS011;54569;52.018;5.584;2024-03-23T04:48:35;11.50;;;3.75;;
67768;SDS011;54569;52.018;5.584;2024-03-23T04:51:01;10.23;;;3.75;;
67768;SDS011;54569;52.018;5.584;2024-03-23T04:53:27;12.88;;;4.20;;
67768;SDS011;54569;52.018;5.584;2024-03-23T04:55:56;15.20;;;4.07;;
67768;SDS011;54569;52.018;5.584;2024-03-23T04:58:22;9.52;;;3.55;;
67768;SDS011;54569;52.018;5.584;2024-03-23T05:00:52;11.30;;;3.15;;
67768;SDS011;54569;52.018;5.584;2024-03-23T05:03:22;12.27;;;3.78;;
67768;SDS011;54569;52.018;5.584;2024-03-23T05:05:48;9.90;;;3.38;;
67768;SDS011;54569;52.018;5.584;2024-03-23T05:08:14;11.15;;;3.65;;
67768;SDS011;54569;52.018;5.584;2024-03-23T05:10:43;9.38;;;3.35;;
67768;SDS011;54569;52.018;5.584;2024-03-23T05:13:09;9.38;;;3.42;;
67768;SDS011;54569;52.018;5.584;2024-03-23T05:15:35;11.15;;;3.42;;
67768;SDS011;54569;52.018;5.584;2024-03-23T05:18:01;9.82;;;3.08;;
67768;SDS011;54569;52.018;5.584;2024-03-23T05:20:27;11.20;;;3.88;;
67768;SDS011;54569;52.018;5.584;2024-03-23T05:22:54;8.88;;;3.03;;
67768;SDS011;54569;52.018;5.584;2024-03-23T05:25:20;18.48;;;3.90;;
67768;SDS011;54569;52.018;5.584;2024-03-23T05:27:46;8.25;;;2.83;;
67768;SDS011;54569;52.018;5.584;2024-03-23T05:30:11;11.90;;;2.83;;
67768;SDS011;54569;52.018;5.584;2024-03-23T05:32:38;9.75;;;3.03;;
67768;SDS011;54569;52.018;5.584;2024-03-23T05:35:06;11.90;;;3.67;;
67768;SDS011;54569;52.018;5.584;2024-03-23T05:37:33;13.85;;;3.28;;
67768;SDS011;54569;52.018;5.584;2024-03-23T05:40:02;8.07;;;2.88;;
67768;SDS011;54569;52.018;5.584;2024-03-23T05:42:29;9.00;;;2.53;;
67768;SDS011;54569;52.018;5.584;2024-03-23T05:44:55;9.80;;;2.75;;
67768;SDS011;54569;52.018;5.584;2024-03-23T05:47:20;10.52;;;2.80;;
67768;SDS011;54569;52.018;5.584;2024-03-23T05:49:46;8.60;;;2.13;;
67768;SDS011;54569;52.018;5.584;2024-03-23T05:52:12;7.10;;;2.58;;
67768;SDS011;54569;52.018;5.584;2024-03-23T05:54:38;10.00;;;2.83;;
67768;SDS011;54569;52.018;5.584;2024-03-23T05:57:04;8.93;;;2.60;;
67768;SDS011;54569;52.018;5.584;2024-03-23T05:59:32;8.95;;;2.10;;
67768;SDS011;54569;52.018;5.584;2024-03-23T06:01:58;6.40;;;2.15;;
67768;SDS011;54569;52.018;5.584;2024-03-23T06:04:24;8.80;;;1.85;;
67768;SDS011;54569;52.018;5.584;2024-03-23T06:06:50;7.03;;;1.88;;
67768;SDS011;54569;52.018;5.584;2024-03-23T06:09:19;8.80;;;2.30;;
67768;SDS011;54569;52.018;5.584;2024-03-23T06:11:45;9.02;;;2.80;;
67768;SDS011;54569;52.018;5.584;2024-03-23T06:14:11;10.20;;;2.13;;
67768;SDS011;54569;52.018;5.584;2024-03-23T06:16:37;13.38;;;2.05;;
67768;SDS011;54569;52.018;5.584;2024-03-23T06:19:03;5.82;;;2.38;;
67768;SDS011;54569;52.018;5.584;2024-03-23T06:21:29;9.50;;;1.90;;
67768;SDS011;54569;52.018;5.584;2024-03-23T06:23:55;9.60;;;1.77;;
67768;SDS011;54569;52.018;5.584;2024-03-23T06:26:21;6.07;;;2.28;;
67768;SDS011;54569;52.018;5.584;2024-03-23T06:28:47;4.68;;;1.55;;
67768;SDS011;54569;52.018;5.584;2024-03-23T06:31:13;6.75;;;2.00;;
67768;SDS011;54569;52.018;5.584;2024-03-23T06:33:39;8.00;;;2.17;;
67768;SDS011;54569;52.018;5.584;2024-03-23T06:36:09;6.10;;;1.92;;
67768;SDS011;54569;52.018;5.584;2024-03-23T06:38:35;8.38;;;1.90;;
67768;SDS011;54569;52.018;5.584;2024-03-23T06:41:03;5.57;;;1.98;;
67768;SDS011;54569;52.018;5.584;2024-03-23T06:43:32;3.88;;;1.90;;
67768;SDS011;54569;52.018;5.584;2024-03-23T06:45:58;7.47;;;2.30;;
67768;SDS011;54569;52.018;5.584;2024-03-23T06:48:23;9.05;;;2.78;;
67768;SDS011;54569;52.018;5.584;2024-03-23T06:50:49;7.00;;;1.70;;
67768;SDS011;54569;52.018;5.584;2024-03-23T06:53:20;7.90;;;2.03;;
67768;SDS011;54569;52.018;5.584;2024-03-23T06:55:49;9.50;;;2.47;;
67768;SDS011;54569;52.018;5.584;2024-03-23T06:58:16;7.22;;;2.05;;
67768;SDS011;54569;52.018;5.584;2024-03-23T07:00:41;8.13;;;2.10;;
67768;SDS011;54569;52.018;5.584;2024-03-23T07:03:07;8.02;;;2.28;;
67768;SDS011;54569;52.018;5.584;2024-03-23T07:05:33;7.80;;;1.83;;
67768;SDS011;54569;52.018;5.584;2024-03-23T07:07:58;7.00;;;2.45;;
67768;SDS011;54569;52.018;5.584;2024-03-23T07:10:24;6.15;;;2.53;;
67768;SDS011;54569;52.018;5.584;2024-03-23T07:12:50;7.63;;;2.42;;
67768;SDS011;54569;52.018;5.584;2024-03-23T07:15:15;8.10;;;2.28;;
67768;SDS011;54569;52.018;5.584;2024-03-23T07:17:41;10.45;;;2.08;;
67768;SDS011;54569;52.018;5.584;2024-03-23T07:20:07;6.38;;;2.25;;
67768;SDS011;54569;52.018;5.584;2024-03-23T07:22:35;8.35;;;1.73;;
67768;SDS011;54569;52.018;5.584;2024-03-23T07:25:01;8.80;;;2.28;;
67768;SDS011;54569;52.018;5.584;2024-03-23T07:27:28;5.78;;;2.33;;
67768;SDS011;54569;52.018;5.584;2024-03-23T07:29:54;6.60;;;2.25;;
67768;SDS011;54569;52.018;5.584;2024-03-23T07:32:20;10.38;;;2.50;;
67768;SDS011;54569;52.018;5.584;2024-03-23T07:34:46;6.38;;;2.20;;
67768;SDS011;54569;52.018;5.584;2024-03-23T07:37:11;8.23;;;2.22;;
67768;SDS011;54569;52.018;5.584;2024-03-23T07:39:37;9.35;;;1.95;;
67768;SDS011;54569;52.018;5.584;2024-03-23T07:42:05;7.28;;;2.17;;
67768;SDS011;54569;52.018;5.584;2024-03-23T07:44:31;10.73;;;3.00;;
67768;SDS011;54569;52.018;5.584;2024-03-23T07:46:58;10.05;;;2.90;;
67768;SDS011;54569;52.018;5.584;2024-03-23T07:49:26;10.10;;;2.50;;
67768;SDS011;54569;52.018;5.584;2024-03-23T07:51:51;6.93;;;2.25;;
67768;SDS011;54569;52.018;5.584;2024-03-23T07:54:17;9.10;;;2.58;;
67768;SDS011;54569;52.018;5.584;2024-03-23T07:56:43;7.55;;;1.90;;
67768;SDS011;54569;52.018;5.584;2024-03-23T07:59:09;5.32;;;1.92;;
67768;SDS011;54569;52.018;5.584;2024-03-23T08:01:36;5.93;;;1.98;;
67768;SDS011;54569;52.018;5.584;2024-03-23T08:04:01;5.47;;;2.03;;
67768;SDS011;54569;52.018;5.584;2024-03-23T08:06:27;7.10;;;2.35;;
67768;SDS011;54569;52.018;5.584;2024-03-23T08:08:56;5.00;;;2.10;;
67768;SDS011;54569;52.018;5.584;2024-03-23T08:11:29;6.90;;;2.30;;
67768;SDS011;54569;52.018;5.584;2024-03-23T08:13:56;6.43;;;2.53;;
67768;SDS011;54569;52.018;5.584;2024-03-23T08:16:22;9.15;;;2.35;;
67768;SDS011;54569;52.018;5.584;2024-03-23T08:18:50;10.20;;;2.03;;
67768;SDS011;54569;52.018;5.584;2024-03-23T08:21:17;6.70;;;2.05;;
67768;SDS011;54569;52.018;5.584;2024-03-23T08:23:43;9.40;;;2.20;;
67768;SDS011;54569;52.018;5.584;2024-03-23T08:26:10;8.75;;;1.80;;
67768;SDS011;54569;52.018;5.584;2024-03-23T08:28:37;8.73;;;2.00;;
67768;SDS011;54569;52.018;5.584;2024-03-23T08:31:04;6.53;;;2.00;;
67768;SDS011;54569;52.018;5.584;2024-03-23T08:33:32;7.57;;;2.20;;
67768;SDS011;54569;52.018;5.584;2024-03-23T08:35:59;8.70;;;2.25;;
67768;SDS011;54569;52.018;5.584;2024-03-23T08:38:26;9.40;;;2.30;;
67768;SDS011;54569;52.018;5.584;2024-03-23T08:40:59;8.27;;;2.10;;
67768;SDS011;54569;52.018;5.584;2024-03-23T08:43:25;9.98;;;1.80;;
67768;SDS011;54569;52.018;5.584;2024-03-23T08:45:52;6.47;;;1.80;;
67768;SDS011;54569;52.018;5.584;2024-03-23T08:48:21;6.45;;;1.63;;
67768;SDS011;54569;52.018;5.584;2024-03-23T08:50:47;7.53;;;1.83;;
67768;SDS011;54569;52.018;5.584;2024-03-23T08:53:23;7.05;;;1.77;;
67768;SDS011;54569;52.018;5.584;2024-03-23T08:55:55;5.50;;;1.63;;
67768;SDS011;54569;52.018;5.584;2024-03-23T08:58:22;8.68;;;1.70;;
67768;SDS011;54569;52.018;5.584;2024-03-23T09:00:49;6.43;;;1.58;;
67768;SDS011;54569;52.018;5.584;2024-03-23T09:03:16;6.68;;;1.83;;
67768;SDS011;54569;52.018;5.584;2024-03-23T09:05:42;7.38;;;1.88;;
67768;SDS011;54569;52.018;5.584;2024-03-23T09:08:07;6.82;;;1.88;;
67768;SDS011;54569;52.018;5.584;2024-03-23T09:10:40;5.88;;;1.70;;
67768;SDS011;54569;52.018;5.584;2024-03-23T09:13:07;6.68;;;1.75;;
67768;SDS011;54569;52.018;5.584;2024-03-23T09:15:34;6.80;;;2.00;;
67768;SDS011;54569;52.018;5.584;2024-03-23T09:18:00;9.52;;;1.98;;
67768;SDS011;54569;52.018;5.584;2024-03-23T09:20:26;7.68;;;1.80;;
67768;SDS011;54569;52.018;5.584;2024-03-23T09:22:52;6.05;;;1.40;;
67768;SDS011;54569;52.018;5.584;2024-03-23T09:25:17;4.50;;;1.63;;
67768;SDS011;54569;52.018;5.584;2024-03-23T09:27:45;6.00;;;1.73;;
67768;SDS011;54569;52.018;5.584;2024-03-23T09:30:12;7.10;;;1.90;;
67768;SDS011;54569;52.018;5.584;2024-03-23T09:32:38;6.95;;;2.05;;
67768;SDS011;54569;52.018;5.584;2024-03-23T09:35:04;4.97;;;1.90;;
67768;SDS011;54569;52.018;5.584;2024-03-23T09:37:30;4.88;;;1.67;;
67768;SDS011;54569;52.018;5.584;2024-03-23T09:39:56;5.20;;;1.55;;
67768;SDS011;54569;52.018;5.584;2024-03-23T09:42:21;9.40;;;1.70;;
67768;SDS011;54569;52.018;5.584;2024-03-23T09:44:47;6.35;;;1.67;;
67768;SDS011;54569;52.018;5.584;2024-03-23T09:47:16;6.60;;;1.50;;
67768;SDS011;54569;52.018;5.584;2024-03-23T09:49:42;4.53;;;1.33;;
67768;SDS011;54569;52.018;5.584;2024-03-23T09:52:08;6.13;;;1.27;;
67768;SDS011;54569;52.018;5.584;2024-03-23T09:54:34;4.38;;;1.42;;
67768;SDS011;54569;52.018;5.584;2024-03-23T09:57:00;3.72;;;1.25;;
67768;SDS011;54569;52.018;5.584;2024-03-23T09:59:26;5.97;;;1.63;;
67768;SDS011;54569;52.018;5.584;2024-03-23T10:01:55;4.80;;;2.00;;
67768;SDS011;54569;52.018;5.584;2024-03-23T10:04:40;7.05;;;1.73;;
67768;SDS011;54569;52.018;5.584;2024-03-23T10:09:43;6.70;;;1.80;;
67768;SDS011;54569;52.018;5.584;2024-03-23T10:12:13;4.68;;;1.27;;
67768;SDS011;54569;52.018;5.584;2024-03-23T10:14:41;5.95;;;1.73;;
67768;SDS011;54569;52.018;5.584;2024-03-23T10:17:17;6.95;;;1.55;;
67768;SDS011;54569;52.018;5.584;2024-03-23T10:19:50;6.20;;;1.63;;
67768;SDS011;54569;52.018;5.584;2024-03-23T10:22:18;7.03;;;1.92;;
67768;SDS011;54569;52.018;5.584;2024-03-23T10:24:45;4.85;;;1.80;;
67768;SDS011;54569;52.018;5.584;2024-03-23T10:27:21;5.15;;;1.80;;
67768;SDS011;54569;52.018;5.584;2024-03-23T10:29:49;6.00;;;1.63;;
67768;SDS011;54569;52.018;5.584;2024-03-23T10:32:16;4.35;;;1.52;;
67768;SDS011;54569;52.018;5.584;2024-03-23T10:34:43;6.30;;;1.88;;
67768;SDS011;54569;52.018;5.584;2024-03-23T10:37:10;4.05;;;1.90;;
67768;SDS011;54569;52.018;5.584;2024-03-23T10:39:40;7.18;;;1.88;;
67768;SDS011;54569;52.018;5.584;2024-03-23T10:42:07;7.63;;;1.67;;
67768;SDS011;54569;52.018;5.584;2024-03-23T10:44:35;5.57;;;1.52;;
67768;SDS011;54569;52.018;5.584;2024-03-23T10:47:01;4.05;;;1.50;;
67768;SDS011;54569;52.018;5.584;2024-03-23T10:49:31;5.47;;;1.70;;
67768;SDS011;54569;52.018;5.584;2024-03-23T10:51:59;3.58;;;1.70;;
67768;SDS011;54569;52.018;5.584;2024-03-23T10:54:29;7.28;;;1.55;;
67768;SDS011;54569;52.018;5.584;2024-03-23T10:57:03;4.30;;;1.60;;
67768;SDS011;54569;52.018;5.584;2024-03-23T10:59:50;6.20;;;1.40;;
67768;SDS011;54569;52.018;5.584;2024-03-23T11:02:20;9.48;;;1.58;;
67768;SDS011;54569;52.018;5.584;2024-03-23T11:04:46;5.30;;;1.50;;
67768;SDS011;54569;52.018;5.584;2024-03-23T11:07:31;3.38;;;1.48;;
67768;SDS011;54569;52.018;5.584;2024-03-23T11:09:58;3.92;;;1.00;;
67768;SDS011;54569;52.018;5.584;2024-03-23T11:12:25;2.65;;;1.10;;
67768;SDS011;54569;52.018;5.584;2024-03-23T11:14:56;3.95;;;1.60;;
67768;SDS011;54569;52.018;5.584;2024-03-23T11:17:24;2.95;;;1.40;;
67768;SDS011;54569;52.018;5.584;2024-03-23T11:19:58;4.75;;;1.55;;
67768;SDS011;54569;52.018;5.584;2024-03-23T11:22:40;2.90;;;1.33;;
67768;SDS011;54569;52.018;5.584;2024-03-23T11:25:12;4.50;;;1.63;;
67768;SDS011;54569;52.018;5.584;2024-03-23T11:27:39;4.47;;;1.30;;
67768;SDS011;54569;52.018;5.584;2024-03-23T11:30:11;3.55;;;1.70;;
67768;SDS011;54569;52.018;5.584;2024-03-23T11:32:42;3.63;;;1.30;;
67768;SDS011;54569;52.018;5.584;2024-03-23T11:35:09;4.28;;;1.30;;
67768;SDS011;54569;52.018;5.584;2024-03-23T11:37:36;5.22;;;1.42;;
67768;SDS011;54569;52.018;5.584;2024-03-23T11:40:18;4.45;;;1.30;;
67768;SDS011;54569;52.018;5.584;2024-03-23T11:42:45;5.20;;;1.35;;
67768;SDS011;54569;52.018;5.584;2024-03-23T11:45:11;6.32;;;1.40;;
67768;SDS011;54569;52.018;5.584;2024-03-23T11:47:37;5.32;;;1.77;;
67768;SDS011;54569;52.018;5.584;2024-03-23T11:50:02;3.90;;;1.40;;
67768;SDS011;54569;52.018;5.584;2024-03-23T11:52:29;10.60;;;1.50;;
67768;SDS011;54569;52.018;5.584;2024-03-23T11:55:04;4.78;;;1.50;;
67768;SDS011;54569;52.018;5.584;2024-03-23T11:57:32;7.75;;;1.50;;
67768;SDS011;54569;52.018;5.584;2024-03-23T11:59:59;3.95;;;1.40;;
67768;SDS011;54569;52.018;5.584;2024-03-23T12:02:24;6.70;;;1.75;;
67768;SDS011;54569;52.018;5.584;2024-03-23T12:04:50;4.70;;;1.52;;
67768;SDS011;54569;52.018;5.584;2024-03-23T12:09:45;6.93;;;2.33;;
67768;SDS011;54569;52.018;5.584;2024-03-23T12:12:17;4.50;;;1.33;;
67768;SDS011;54569;52.018;5.584;2024-03-23T12:14:44;7.57;;;2.30;;
67768;SDS011;54569;52.018;5.584;2024-03-23T12:19:37;6.55;;;1.67;;
67768;SDS011;54569;52.018;5.584;2024-03-23T12:22:04;5.45;;;1.40;;
67768;SDS011;54569;52.018;5.584;2024-03-23T12:24:31;5.93;;;1.33;;
67768;SDS011;54569;52.018;5.584;2024-03-23T12:26:59;4.45;;;1.67;;
67768;SDS011;54569;52.018;5.584;2024-03-23T12:29:27;6.63;;;1.73;;
67768;SDS011;54569;52.018;5.584;2024-03-23T12:31:54;6.82;;;1.85;;
67768;SDS011;54569;52.018;5.584;2024-03-23T12:34:21;5.50;;;1.42;;
67768;SDS011;54569;52.018;5.584;2024-03-23T12:36:46;4.85;;;1.40;;
67768;SDS011;54569;52.018;5.584;2024-03-23T12:39:12;7.20;;;1.50;;
67768;SDS011;54569;52.018;5.584;2024-03-23T12:41:38;4.60;;;1.30;;
67768;SDS011;54569;52.018;5.584;2024-03-23T12:44:03;5.57;;;1.60;;
67768;SDS011;54569;52.018;5.584;2024-03-23T12:46:29;7.93;;;1.83;;
67768;SDS011;54569;52.018;5.584;2024-03-23T12:48:55;4.30;;;1.30;;
67768;SDS011;54569;52.018;5.584;2024-03-23T12:51:21;6.78;;;1.63;;
67768;SDS011;54569;52.018;5.584;2024-03-23T12:53:46;6.50;;;1.80;;
67768;SDS011;54569;52.018;5.584;2024-03-23T12:56:12;5.82;;;1.38;;
67768;SDS011;54569;52.018;5.584;2024-03-23T12:58:38;5.53;;;1.92;;
67768;SDS011;54569;52.018;5.584;2024-03-23T13:01:03;7.50;;;1.35;;
67768;SDS011;54569;52.018;5.584;2024-03-23T13:03:31;7.65;;;1.40;;
67768;SDS011;54569;52.018;5.584;2024-03-23T13:05:57;4.53;;;1.55;;
67768;SDS011;54569;52.018;5.584;2024-03-23T13:08:23;7.10;;;1.40;;
67768;SDS011;54569;52.018;5.584;2024-03-23T13:10:51;8.85;;;1.85;;
67768;SDS011;54569;52.018;5.584;2024-03-23T13:13:17;5.03;;;1.40;;
67768;SDS011;54569;52.018;5.584;2024-03-23T13:15:49;5.93;;;1.75;;
67768;SDS011;54569;52.018;5.584;2024-03-23T13:18:17;7.78;;;1.60;;
67768;SDS011;54569;52.018;5.584;2024-03-23T13:20:43;3.22;;;1.55;;
67768;SDS011;54569;52.018;5.584;2024-03-23T13:23:09;8.05;;;1.38;;
67768;SDS011;54569;52.018;5.584;2024-03-23T13:25:35;5.32;;;1.30;;
67768;SDS011;54569;52.018;5.584;2024-03-23T13:28:02;4.85;;;1.15;;
67768;SDS011;54569;52.018;5.584;2024-03-23T13:30:28;7.45;;;2.42;;
67768;SDS011;54569;52.018;5.584;2024-03-23T13:32:54;6.70;;;1.80;;
67768;SDS011;54569;52.018;5.584;2024-03-23T13:35:20;6.68;;;1.77;;
67768;SDS011;54569;52.018;5.584;2024-03-23T13:37:46;9.57;;;1.60;;
67768;SDS011;54569;52.018;5.584;2024-03-23T13:40:12;5.40;;;1.23;;
67768;SDS011;54569;52.018;5.584;2024-03-23T13:42:38;3.45;;;1.30;;
67768;SDS011;54569;52.018;5.584;2024-03-23T13:45:04;5.60;;;1.10;;
67768;SDS011;54569;52.018;5.584;2024-03-23T13:47:30;5.85;;;1.48;;
67768;SDS011;54569;52.018;5.584;2024-03-23T13:49:55;3.53;;;1.08;;
67768;SDS011;54569;52.018;5.584;2024-03-23T13:52:21;2.60;;;0.80;;
67768;SDS011;54569;52.018;5.584;2024-03-23T13:54:51;5.80;;;0.95;;
67768;SDS011;54569;52.018;5.584;2024-03-23T13:57:17;3.92;;;1.13;;
67768;SDS011;54569;52.018;5.584;2024-03-23T13:59:46;3.95;;;1.23;;
67768;SDS011;54569;52.018;5.584;2024-03-23T14:02:14;4.32;;;1.00;;
67768;SDS011;54569;52.018;5.584;2024-03-23T14:04:40;3.30;;;1.00;;
67768;SDS011;54569;52.018;5.584;2024-03-23T14:07:06;4.30;;;0.90;;
67768;SDS011;54569;52.018;5.584;2024-03-23T14:09:32;3.85;;;1.10;;
67768;SDS011;54569;52.018;5.584;2024-03-23T14:11:58;1.65;;;0.73;;
67768;SDS011;54569;52.018;5.584;2024-03-23T14:14:25;3.00;;;0.77;;
67768;SDS011;54569;52.018;5.584;2024-03-23T14:16:51;2.88;;;1.10;;
67768;SDS011;54569;52.018;5.584;2024-03-23T14:19:18;2.28;;;0.70;;
67768;SDS011;54569;52.018;5.584;2024-03-23T14:21:44;3.92;;;0.90;;
67768;SDS011;54569;52.018;5.584;2024-03-23T14:24:10;2.47;;;0.95;;
67768;SDS011;54569;52.018;5.584;2024-03-23T14:26:36;5.25;;;1.13;;
67768;SDS011;54569;52.018;5.584;2024-03-23T14:29:01;6.78;;;1.20;;
67768;SDS011;54569;52.018;5.584;2024-03-23T14:31:28;6.30;;;1.35;;
67768;SDS011;54569;52.018;5.584;2024-03-23T14:33:54;2.55;;;0.98;;
67768;SDS011;54569;52.018;5.584;2024-03-23T14:36:20;4.05;;;1.13;;
67768;SDS011;54569;52.018;5.584;2024-03-23T14:38:49;5.15;;;0.90;;
67768;SDS011;54569;52.018;5.584;2024-03-23T14:41:15;3.20;;;1.27;;
67768;SDS011;54569;52.018;5.584;2024-03-23T14:43:41;3.83;;;1.00;;
67768;SDS011;54569;52.018;5.584;2024-03-23T14:46:12;4.22;;;1.00;;
67768;SDS011;54569;52.018;5.584;2024-03-23T14:48:39;4.90;;;1.02;;
67768;SDS011;54569;52.018;5.584;2024-03-23T14:51:06;3.70;;;1.33;;
67768;SDS011;54569;52.018;5.584;2024-03-23T14:53:36;6.22;;;1.10;;
67768;SDS011;54569;52.018;5.584;2024-03-23T14:56:07;6.68;;;1.23;;
67768;SDS011;54569;52.018;5.584;2024-03-23T14:58:33;4.50;;;1.50;;
67768;SDS011;54569;52.018;5.584;2024-03-23T15:01:02;3.67;;;1.00;;
67768;SDS011;54569;52.018;5.584;2024-03-23T15:03:29;5.03;;;1.30;;
67768;SDS011;54569;52.018;5.584;2024-03-23T15:05:56;4.70;;;1.27;;
67768;SDS011;54569;52.018;5.584;2024-03-23T15:08:22;5.10;;;1.48;;
67768;SDS011;54569;52.018;5.584;2024-03-23T15:10:49;7.13;;;1.90;;
67768;SDS011;54569;52.018;5.584;2024-03-23T15:13:15;3.45;;;1.58;;
67768;SDS011;54569;52.018;5.584;2024-03-23T15:15:41;5.85;;;1.95;;
67768;SDS011;54569;52.018;5.584;2024-03-23T15:18:10;6.35;;;1.80;;
67768;SDS011;54569;52.018;5.584;2024-03-23T15:20:39;5.72;;;1.20;;
67768;SDS011;54569;52.018;5.584;2024-03-23T15:23:04;8.10;;;1.27;;
67768;SDS011;54569;52.018;5.584;2024-03-23T15:25:30;5.75;;;0.93;;
67768;SDS011;54569;52.018;5.584;2024-03-23T15:27:57;2.92;;;0.85;;
67768;SDS011;54569;52.018;5.584;2024-03-23T15:30:24;4.30;;;0.80;;
67768;SDS011;54569;52.018;5.584;2024-03-23T15:32:50;4.30;;;1.17;;
67768;SDS011;54569;52.018;5.584;2024-03-23T15:35:16;4.00;;;0.82;;
67768;SDS011;54569;52.018;5.584;2024-03-23T15:37:41;5.38;;;1.00;;
67768;SDS011;54569;52.018;5.584;2024-03-23T15:40:08;1.67;;;0.60;;